createdAt,value
2022-12-09T00:00:09.957Z,30.42
2022-12-09T00:02:39.037Z,32.03
2022-12-09T00:05:08.434Z,30.50
2022-12-09T00:07:37.114Z,33.15
2022-12-09T00:10:06.679Z,31.33
2022-12-09T00:12:35.643Z,28.70
2022-12-09T00:15:04.436Z,30.02
2022-12-09T00:17:34.355Z,32.38
2022-12-09T00:20:03.260Z,30.15
2022-12-09T00:22:32.692Z,30.45
2022-12-09T00:25:00.993Z,32.72
2022-12-09T00:27:29.662Z,36.05
2022-12-09T00:29:58.008Z,31.92
2022-12-09T00:32:26.473Z,29.50
2022-12-09T00:34:57.305Z,26.40
2022-12-09T00:37:25.641Z,30.75
2022-12-09T00:39:53.920Z,28.45
2022-12-09T00:42:23.357Z,33.92
2022-12-09T00:44:51.664Z,27.63
2022-12-09T00:47:21.059Z,32.80
2022-12-09T00:49:49.416Z,31.17
2022-12-09T00:52:19.241Z,28.05
2022-12-09T00:54:47.943Z,30.85
2022-12-09T00:57:19.371Z,28.05
2022-12-09T00:59:47.874Z,29.65
2022-12-09T01:02:19.710Z,30.33
2022-12-09T01:04:52.034Z,24.85
2022-12-09T01:07:22.887Z,32.13
2022-12-09T01:09:51.480Z,30.98
2022-12-09T01:12:22.283Z,33.78
2022-12-09T01:14:51.910Z,32.05
2022-12-09T01:17:22.057Z,31.42
2022-12-09T01:19:50.726Z,27.17
2022-12-09T01:22:19.058Z,31.52
2022-12-09T01:24:48.836Z,29.48
2022-12-09T01:27:17.420Z,30.63
2022-12-09T01:29:48.395Z,26.33
2022-12-09T01:32:16.849Z,27.63
2022-12-09T01:34:45.589Z,19.25
2022-12-09T01:37:16.236Z,22.88
2022-12-09T01:39:45.093Z,19.50
2022-12-09T01:42:20.413Z,28.30
2022-12-09T01:45:37.606Z,20.73
2022-12-09T01:48:09.275Z,25.63
2022-12-09T01:50:39.509Z,22.73
2022-12-09T01:53:08.617Z,21.08
2022-12-09T01:55:37.311Z,21.55
2022-12-09T01:58:07.670Z,21.15
2022-12-09T02:00:36.487Z,24.48
2022-12-09T02:03:07.703Z,19.00
2022-12-09T02:05:39.306Z,21.85
2022-12-09T02:08:11.651Z,19.27
2022-12-09T02:10:48.905Z,19.33
2022-12-09T02:13:44.015Z,24.35
2022-12-09T02:16:17.896Z,24.98
2022-12-09T02:18:50.740Z,21.63
2022-12-09T02:21:23.394Z,22.65
2022-12-09T02:23:59.395Z,21.67
2022-12-09T02:26:33.378Z,24.70
2022-12-09T02:29:38.419Z,22.30
2022-12-09T02:32:40.116Z,21.60
2022-12-09T02:35:16.904Z,23.85
2022-12-09T02:37:49.388Z,16.50
2022-12-09T02:40:23.219Z,20.58
2022-12-09T02:42:51.898Z,18.75
2022-12-09T02:45:22.450Z,18.27
2022-12-09T02:47:54.892Z,19.92
2022-12-09T02:50:27.252Z,18.88
2022-12-09T02:52:55.987Z,19.10
2022-12-09T02:55:24.863Z,17.35
2022-12-09T02:57:57.838Z,22.92
2022-12-09T03:00:27.741Z,21.50
2022-12-09T03:02:58.024Z,22.40
2022-12-09T03:05:35.434Z,20.15
2022-12-09T03:08:10.319Z,19.23
2022-12-09T03:13:12.301Z,19.58
2022-12-09T03:15:44.140Z,26.90
2022-12-09T03:18:14.768Z,20.10
2022-12-09T03:20:49.204Z,21.13
2022-12-09T03:23:19.347Z,26.23
2022-12-09T03:25:50.344Z,26.05
2022-12-09T03:28:21.223Z,23.30
2022-12-09T03:30:50.445Z,27.10
2022-12-09T03:33:21.352Z,22.35
2022-12-09T03:35:54.269Z,25.98
2022-12-09T03:38:24.161Z,22.52
2022-12-09T03:40:56.431Z,30.98
2022-12-09T03:43:26.962Z,24.27
2022-12-09T03:45:56.311Z,24.90
2022-12-09T03:48:25.567Z,23.98
2022-12-09T03:50:59.645Z,22.65
2022-12-09T03:53:34.995Z,24.67
2022-12-09T03:56:07.744Z,20.80
2022-12-09T03:58:37.029Z,20.02
2022-12-09T04:01:05.859Z,23.13
2022-12-09T04:03:34.758Z,19.73
2022-12-09T04:06:04.675Z,20.60
2022-12-09T04:08:33.045Z,19.55
2022-12-09T04:11:01.537Z,19.27
2022-12-09T04:13:29.995Z,22.33
2022-12-09T04:15:58.686Z,25.95
2022-12-09T04:18:27.235Z,23.05
2022-12-09T04:20:55.800Z,19.60
2022-12-09T04:23:27.942Z,24.67
2022-12-09T04:25:59.049Z,28.58
2022-12-09T04:28:30.661Z,21.90
2022-12-09T04:30:59.474Z,24.77
2022-12-09T04:33:28.331Z,26.42
2022-12-09T04:35:57.175Z,25.70
2022-12-09T04:38:26.884Z,28.65
2022-12-09T04:40:55.524Z,24.20
2022-12-09T04:43:24.075Z,25.35
2022-12-09T04:45:54.255Z,31.80
2022-12-09T04:48:22.881Z,36.38
2022-12-09T04:50:51.405Z,39.95
2022-12-09T04:53:20.076Z,35.85
2022-12-09T04:55:51.044Z,41.92
2022-12-09T04:58:19.678Z,48.53
2022-12-09T05:00:47.987Z,54.28
2022-12-09T05:03:17.040Z,49.50
2022-12-09T05:05:45.826Z,54.45
2022-12-09T05:08:14.841Z,46.67
2022-12-09T05:10:48.319Z,50.00
2022-12-09T05:13:18.397Z,53.03
2022-12-09T05:15:47.050Z,58.20
2022-12-09T05:18:15.618Z,37.70
2022-12-09T05:20:47.110Z,49.72
2022-12-09T05:23:15.506Z,50.78
2022-12-09T05:25:43.999Z,46.15
2022-12-09T05:28:12.830Z,50.70
2022-12-09T05:30:43.136Z,57.03
2022-12-09T05:33:13.847Z,53.85
2022-12-09T05:35:52.218Z,53.70
2022-12-09T05:38:21.963Z,48.60
2022-12-09T05:40:50.797Z,44.15
2022-12-09T05:43:19.994Z,40.30
2022-12-09T05:45:50.198Z,52.35
2022-12-09T05:48:20.992Z,47.83
2022-12-09T05:50:58.266Z,57.65
2022-12-09T05:53:27.121Z,50.60
2022-12-09T05:55:55.649Z,56.75
2022-12-09T05:58:24.671Z,58.00
2022-12-09T06:00:56.899Z,63.00
2022-12-09T06:03:26.346Z,63.22
2022-12-09T06:05:55.185Z,54.38
2022-12-09T06:08:23.951Z,56.45
2022-12-09T06:10:55.282Z,48.17
2022-12-09T06:13:25.727Z,55.45
2022-12-09T06:15:56.008Z,53.05
2022-12-09T06:18:24.546Z,51.45
2022-12-09T06:20:53.058Z,53.20
2022-12-09T06:23:24.787Z,49.33
2022-12-09T06:25:57.205Z,58.20
2022-12-09T06:28:26.741Z,56.30
2022-12-09T06:30:56.575Z,43.00
2022-12-09T06:33:53.058Z,54.80
2022-12-09T06:36:14.465Z,47.50
2022-12-09T06:38:43.869Z,46.33
2022-12-09T06:41:16.281Z,42.25
2022-12-09T06:43:44.860Z,46.83
2022-12-09T06:46:18.716Z,45.03
2022-12-09T06:48:48.149Z,52.00
2022-12-09T06:51:17.059Z,52.53
2022-12-09T06:53:48.233Z,51.90
2022-12-09T06:56:17.665Z,48.85
2022-12-09T06:58:50.689Z,42.90
2022-12-09T07:01:23.838Z,47.25
2022-12-09T07:03:54.396Z,42.97
2022-12-09T07:06:26.783Z,35.03
2022-12-09T07:08:56.381Z,31.52
2022-12-09T07:11:25.049Z,44.15
2022-12-09T07:13:54.163Z,52.78
2022-12-09T07:16:24.065Z,48.80
2022-12-09T07:18:53.026Z,49.35
2022-12-09T07:21:24.955Z,45.40
2022-12-09T07:24:02.218Z,46.50
2022-12-09T07:26:32.734Z,47.95
2022-12-09T07:29:03.863Z,41.97
2022-12-09T07:31:34.468Z,45.65
2022-12-09T07:34:03.866Z,41.85
2022-12-09T07:36:35.902Z,43.95
2022-12-09T07:39:07.088Z,50.45
2022-12-09T07:41:35.968Z,43.78
2022-12-09T07:44:04.886Z,49.85
2022-12-09T07:46:35.022Z,49.15
2022-12-09T07:49:07.395Z,47.17
2022-12-09T07:51:36.321Z,49.67
2022-12-09T07:54:08.094Z,44.70
2022-12-09T07:56:40.933Z,45.00
2022-12-09T07:59:09.834Z,48.13
2022-12-09T08:01:41.446Z,42.90
2022-12-09T08:04:10.591Z,43.58
2022-12-09T08:06:42.374Z,41.97
2022-12-09T08:09:14.183Z,45.13
2022-12-09T08:11:47.178Z,38.00
2022-12-09T08:14:16.283Z,45.03
2022-12-09T08:16:46.285Z,41.20
2022-12-09T08:19:15.428Z,41.17
2022-12-09T08:21:46.319Z,44.33
2022-12-09T08:24:17.166Z,43.33
2022-12-09T08:26:47.237Z,49.80
2022-12-09T08:29:16.156Z,41.65
2022-12-09T08:31:48.234Z,48.70
2022-12-09T08:34:17.070Z,40.38
2022-12-09T08:36:45.939Z,49.50
2022-12-09T08:39:15.639Z,42.70
2022-12-09T08:41:48.559Z,44.50
2022-12-09T08:44:18.773Z,54.08
2022-12-09T08:46:52.987Z,48.17
2022-12-09T08:49:24.272Z,49.25
2022-12-09T08:51:54.606Z,47.00
2022-12-09T08:54:27.471Z,44.83
2022-12-09T08:56:57.185Z,42.25
2022-12-09T08:59:28.829Z,40.28
2022-12-09T09:01:58.733Z,42.90
2022-12-09T09:07:01.532Z,43.63
2022-12-09T09:09:30.104Z,47.50
2022-12-09T09:11:59.263Z,40.85
2022-12-09T09:14:27.848Z,41.60
2022-12-09T09:16:56.807Z,42.67
2022-12-09T09:19:32.844Z,43.38
2022-12-09T09:22:02.094Z,39.63
2022-12-09T09:24:31.973Z,47.80
2022-12-09T09:27:00.420Z,47.65
2022-12-09T09:29:30.117Z,46.90
2022-12-09T09:31:59.218Z,44.10
2022-12-09T09:34:29.889Z,44.47
2022-12-09T09:37:07.586Z,46.70
2022-12-09T09:39:38.178Z,51.38
2022-12-09T09:42:08.916Z,39.88
2022-12-09T09:44:41.165Z,47.25
2022-12-09T09:47:16.825Z,41.38
2022-12-09T09:49:51.841Z,49.17
2022-12-09T09:52:22.599Z,44.42
2022-12-09T09:54:51.363Z,38.10
2022-12-09T09:57:25.635Z,45.22
2022-12-09T10:00:09.246Z,41.47
2022-12-09T10:02:55.732Z,43.58
2022-12-09T10:05:30.539Z,42.13
2022-12-09T10:08:08.293Z,39.55
2022-12-09T10:10:44.227Z,41.00
2022-12-09T10:13:27.547Z,38.80
2022-12-09T10:16:01.055Z,38.80
2022-12-09T10:18:34.619Z,41.28
2022-12-09T10:21:06.713Z,41.58
2022-12-09T10:23:35.387Z,38.80
2022-12-09T10:26:05.217Z,42.78
2022-12-09T10:28:36.464Z,34.88
2022-12-09T10:31:05.432Z,35.70
2022-12-09T10:33:37.100Z,39.50
2022-12-09T10:36:08.494Z,36.45
2022-12-09T10:38:40.359Z,36.38
2022-12-09T10:41:38.243Z,39.33
2022-12-09T10:44:21.924Z,40.57
2022-12-09T10:46:57.363Z,37.85
2022-12-09T10:49:31.278Z,31.00
2022-12-09T10:52:02.337Z,30.57
2022-12-09T10:54:35.837Z,42.90
2022-12-09T10:57:15.719Z,39.28
2022-12-09T10:59:58.730Z,40.22
2022-12-09T11:02:32.900Z,42.13
2022-12-09T11:05:22.899Z,42.75
2022-12-09T11:07:54.329Z,42.50
2022-12-09T11:10:25.455Z,42.05
2022-12-09T11:12:56.044Z,38.42
2022-12-09T11:15:32.329Z,46.70
2022-12-09T11:18:04.316Z,39.63
2022-12-09T11:20:34.553Z,39.40
2022-12-09T11:23:07.458Z,37.97
2022-12-09T11:25:38.519Z,42.63
2022-12-09T11:28:24.571Z,38.75
2022-12-09T11:33:51.090Z,37.72
2022-12-09T11:36:22.806Z,38.17
2022-12-09T11:38:54.316Z,37.50
2022-12-09T11:41:38.822Z,35.65
2022-12-09T11:44:26.528Z,34.05
2022-12-09T11:47:00.319Z,36.42
2022-12-09T11:49:29.284Z,37.57
2022-12-09T11:52:07.953Z,36.35
2022-12-09T11:54:43.002Z,34.60
2022-12-09T11:57:23.001Z,33.47
2022-12-09T11:59:54.961Z,27.85
2022-12-09T12:02:30.273Z,37.17
2022-12-09T12:05:04.078Z,39.35
2022-12-09T12:07:40.040Z,27.57
2022-12-09T12:10:16.389Z,31.05
2022-12-09T12:12:48.970Z,35.78
2022-12-09T12:15:23.277Z,31.90
2022-12-09T12:17:54.809Z,35.08
2022-12-09T12:20:26.702Z,30.45
2022-12-09T12:23:17.939Z,32.72
2022-12-09T12:25:54.107Z,32.38
2022-12-09T12:28:45.929Z,28.20
2022-12-09T12:31:26.981Z,28.10
2022-12-09T12:36:56.319Z,34.65
2022-12-09T12:39:35.695Z,32.42
2022-12-09T12:42:14.016Z,31.45
2022-12-09T12:45:10.538Z,27.38
2022-12-09T12:47:46.262Z,27.25
2022-12-09T12:50:44.931Z,27.73
2022-12-09T12:53:24.141Z,30.77
2022-12-09T12:55:58.328Z,31.30
2022-12-09T12:58:38.998Z,34.35
2022-12-09T13:01:12.485Z,27.98
2022-12-09T13:03:48.928Z,30.80
2022-12-09T13:06:27.036Z,30.10
2022-12-09T13:09:01.433Z,29.45
2022-12-09T13:11:37.655Z,26.80
2022-12-09T13:14:15.928Z,27.23
2022-12-09T13:16:45.278Z,32.03
2022-12-09T13:19:17.597Z,29.25
2022-12-09T13:21:46.717Z,28.35
2022-12-09T13:24:27.031Z,33.63
2022-12-09T13:27:02.031Z,28.85
2022-12-09T13:29:43.185Z,34.25
2022-12-09T13:32:28.433Z,33.10
2022-12-09T13:37:59.142Z,29.17
2022-12-09T13:40:31.025Z,32.72
2022-12-09T13:43:07.896Z,35.83
2022-12-09T13:45:47.358Z,27.63
2022-12-09T13:48:46.474Z,29.92
2022-12-09T13:51:15.382Z,28.33
2022-12-09T13:53:51.440Z,32.30
2022-12-09T13:56:31.745Z,26.42
2022-12-09T13:59:24.900Z,27.85
2022-12-09T14:01:59.315Z,30.85
2022-12-09T14:04:29.730Z,30.80
2022-12-09T14:07:09.907Z,27.77
2022-12-09T14:09:50.580Z,16.70
2022-12-09T14:12:53.979Z,29.40
2022-12-09T14:15:39.610Z,31.30
2022-12-09T14:18:32.820Z,22.75
2022-12-09T14:21:24.510Z,25.60
2022-12-09T14:24:30.139Z,24.88
2022-12-09T14:27:13.318Z,27.10
2022-12-09T14:29:55.969Z,28.75
2022-12-09T14:32:26.773Z,27.33
2022-12-09T14:35:24.190Z,33.20
2022-12-09T14:38:09.080Z,30.60
2022-12-09T14:40:51.827Z,27.58
2022-12-09T14:43:50.472Z,33.30
2022-12-09T14:46:30.353Z,27.40
2022-12-09T14:49:00.459Z,28.85
2022-12-09T14:51:35.853Z,28.73
2022-12-09T14:54:07.963Z,29.08
2022-12-09T14:56:36.484Z,33.70
2022-12-09T14:59:07.074Z,25.02
2022-12-09T15:01:58.901Z,30.58
2022-12-09T15:04:31.741Z,26.08
2022-12-09T15:07:15.452Z,27.05
2022-12-09T15:09:55.855Z,32.47
2022-12-09T15:12:28.353Z,30.20
2022-12-09T15:15:00.443Z,28.35
2022-12-09T15:17:31.556Z,26.48
2022-12-09T15:20:01.245Z,26.98
2022-12-09T15:22:41.237Z,24.10
2022-12-09T15:25:18.711Z,30.90
2022-12-09T15:27:57.253Z,28.25
2022-12-09T15:30:27.793Z,30.85
2022-12-09T15:32:56.500Z,26.88
2022-12-09T15:35:27.652Z,25.70
2022-12-09T15:38:07.693Z,31.35
2022-12-09T15:40:59.044Z,25.58
2022-12-09T15:43:27.667Z,28.17
2022-12-09T15:45:58.204Z,24.58
2022-12-09T15:48:32.272Z,28.42
2022-12-09T15:51:03.460Z,30.48
2022-12-09T15:53:36.560Z,29.08
2022-12-09T15:56:08.330Z,24.08
2022-12-09T15:58:41.601Z,27.67
2022-12-09T16:01:10.528Z,24.65
2022-12-09T16:03:39.655Z,18.17
2022-12-09T16:06:10.768Z,26.58
2022-12-09T16:08:45.156Z,27.02
2022-12-09T16:11:14.428Z,21.50
2022-12-09T16:14:00.635Z,28.88
2022-12-09T16:16:52.701Z,27.25
2022-12-09T16:19:26.993Z,27.60
2022-12-09T16:21:57.205Z,29.38
2022-12-09T16:24:44.146Z,23.70
2022-12-09T16:27:19.562Z,25.38
2022-12-09T16:29:51.637Z,32.40
2022-12-09T16:32:28.384Z,26.70
2022-12-09T16:34:58.065Z,24.77
2022-12-09T16:37:30.982Z,33.05
2022-12-09T16:40:01.722Z,27.92
2022-12-09T16:42:39.351Z,30.33
2022-12-09T16:45:53.798Z,33.17
2022-12-09T16:48:44.582Z,31.15
2022-12-09T16:51:20.658Z,29.55
2022-12-09T16:53:55.023Z,32.22
2022-12-09T16:56:35.021Z,29.05
2022-12-09T16:59:03.399Z,25.75
2022-12-09T17:01:35.351Z,31.52
2022-12-09T17:04:09.759Z,27.02
2022-12-09T17:06:40.592Z,28.88
2022-12-09T17:09:09.031Z,28.40
2022-12-09T17:11:50.956Z,29.15
2022-12-09T17:14:22.034Z,28.90
2022-12-09T17:17:01.833Z,25.77
2022-12-09T17:19:32.915Z,24.17
2022-12-09T17:22:02.343Z,29.73
2022-12-09T17:24:30.761Z,25.90
2022-12-09T17:27:03.709Z,26.73
2022-12-09T17:29:32.831Z,29.58
2022-12-09T17:32:01.491Z,33.22
2022-12-09T17:34:32.095Z,25.85
2022-12-09T17:37:06.113Z,29.80
2022-12-09T17:39:36.750Z,24.77
2022-12-09T17:42:06.769Z,29.17
2022-12-09T17:44:37.663Z,25.90
2022-12-09T17:47:09.095Z,29.13
2022-12-09T17:49:37.439Z,28.75
2022-12-09T17:52:08.643Z,28.80
2022-12-09T17:54:38.312Z,27.83
2022-12-09T17:57:08.229Z,23.73
2022-12-09T17:59:36.639Z,28.63
2022-12-09T18:02:05.013Z,26.95
2022-12-09T18:04:33.996Z,27.25
2022-12-09T18:07:02.407Z,28.75
2022-12-09T18:09:30.797Z,26.80
2022-12-09T18:11:59.204Z,23.65
2022-12-09T18:14:29.346Z,27.65
2022-12-09T18:16:58.328Z,27.50
2022-12-09T18:19:35.250Z,30.05
2022-12-09T18:22:04.648Z,24.40
2022-12-09T18:24:41.071Z,26.65
2022-12-09T18:27:09.867Z,25.08
2022-12-09T18:29:42.342Z,27.33
2022-12-09T18:32:10.726Z,29.85
2022-12-09T18:34:39.862Z,28.42
2022-12-09T18:37:08.924Z,23.08
2022-12-09T18:39:41.486Z,23.42
2022-12-09T18:42:12.282Z,25.55
2022-12-09T18:45:20.622Z,20.33
2022-12-09T18:47:52.845Z,21.15
2022-12-09T18:50:22.675Z,24.80
2022-12-09T18:52:59.758Z,26.77
2022-12-09T18:55:43.619Z,27.58
2022-12-09T18:58:17.775Z,26.02
2022-12-09T19:00:55.529Z,28.80
2022-12-09T19:06:39.855Z,26.65
2022-12-09T19:09:12.651Z,24.88
2022-12-09T19:11:43.370Z,27.48
2022-12-09T19:14:12.192Z,33.75
2022-12-09T19:16:42.233Z,27.48
2022-12-09T19:19:12.595Z,28.33
2022-12-09T19:21:41.178Z,29.88
2022-12-09T19:24:13.634Z,29.92
2022-12-09T19:26:43.164Z,23.73
2022-12-09T19:29:12.362Z,20.45
2022-12-09T19:31:44.336Z,33.08
2022-12-09T19:34:15.126Z,35.50
2022-12-09T19:36:44.001Z,29.42
2022-12-09T19:39:13.824Z,29.30
2022-12-09T19:41:43.235Z,29.10
2022-12-09T19:44:21.627Z,31.27
2022-12-09T19:47:01.441Z,31.52
2022-12-09T19:49:31.108Z,30.02
2022-12-09T19:52:00.142Z,36.28
2022-12-09T19:54:29.874Z,36.65
2022-12-09T19:56:58.660Z,30.27
2022-12-09T19:59:27.919Z,31.55
2022-12-09T20:01:56.832Z,32.58
2022-12-09T20:07:18.989Z,32.80
2022-12-09T20:09:47.816Z,30.90
2022-12-09T20:12:16.335Z,33.78
2022-12-09T20:14:49.517Z,35.28
2022-12-09T20:17:17.975Z,33.17
2022-12-09T20:19:48.491Z,30.60
2022-12-09T20:22:20.180Z,35.13
2022-12-09T20:24:54.702Z,31.50
2022-12-09T20:27:29.720Z,32.08
2022-12-09T20:30:05.499Z,36.28
2022-12-09T20:32:37.576Z,32.47
2022-12-09T20:35:10.197Z,34.03
2022-12-09T20:37:38.898Z,32.33
2022-12-09T20:40:08.904Z,35.78
2022-12-09T20:42:37.598Z,30.42
2022-12-09T20:45:07.921Z,35.60
2022-12-09T20:47:36.947Z,43.00
2022-12-09T20:50:08.447Z,35.33
2022-12-09T20:52:37.330Z,34.20
2022-12-09T20:55:08.300Z,31.75
2022-12-09T20:57:38.668Z,33.88
2022-12-09T21:00:08.422Z,33.85
2022-12-09T21:02:40.331Z,36.70
2022-12-09T21:05:11.228Z,41.53
2022-12-09T21:10:47.187Z,41.60
2022-12-09T21:13:15.845Z,41.67
2022-12-09T21:15:44.705Z,42.47
2022-12-09T21:18:14.043Z,46.83
2022-12-09T21:20:44.436Z,41.25
2022-12-09T21:23:33.246Z,41.78
2022-12-09T21:26:05.661Z,41.22
2022-12-09T21:28:34.347Z,40.22
2022-12-09T21:31:11.133Z,41.63
2022-12-09T21:33:46.007Z,31.85
2022-12-09T21:38:52.349Z,35.85
2022-12-09T21:41:22.417Z,39.60
2022-12-09T21:43:52.542Z,28.13
2022-12-09T21:46:24.808Z,26.63
2022-12-09T21:48:58.565Z,38.50
2022-12-09T21:51:33.434Z,37.45
2022-12-09T21:54:03.015Z,43.58
2022-12-09T21:56:33.303Z,40.97
2022-12-09T21:59:02.033Z,46.20
2022-12-09T22:01:32.314Z,37.63
2022-12-09T22:04:02.037Z,45.85
2022-12-09T22:06:32.395Z,36.03
2022-12-09T22:09:02.059Z,37.00
2022-12-09T22:11:33.107Z,33.72
2022-12-09T22:14:02.523Z,35.00
2022-12-09T22:16:34.244Z,40.97
2022-12-09T22:19:03.779Z,33.03
2022-12-09T22:21:34.329Z,36.83
2022-12-09T22:24:05.216Z,33.40
2022-12-09T22:26:33.782Z,37.97
2022-12-09T22:29:03.222Z,36.17
2022-12-09T22:31:37.091Z,31.88
2022-12-09T22:34:09.428Z,38.57
2022-12-09T22:36:41.199Z,31.95
2022-12-09T22:39:13.424Z,33.65
2022-12-09T22:41:43.877Z,24.95
2022-12-09T22:44:13.643Z,30.95
2022-12-09T22:46:43.101Z,29.85
2022-12-09T22:49:13.033Z,27.83
2022-12-09T22:51:44.383Z,29.45
2022-12-09T22:54:12.953Z,33.50
2022-12-09T22:56:43.004Z,30.13
2022-12-09T22:59:12.223Z,36.25
2022-12-09T23:01:40.603Z,29.98
2022-12-09T23:04:09.385Z,35.72
2022-12-09T23:06:39.291Z,38.33
2022-12-09T23:09:12.664Z,35.78
2022-12-09T23:11:41.120Z,32.00
2022-12-09T23:14:09.728Z,34.90
2022-12-09T23:16:38.147Z,38.22
2022-12-09T23:19:06.683Z,35.92
2022-12-09T23:21:37.254Z,31.65
2022-12-09T23:24:09.654Z,29.70
2022-12-09T23:26:39.574Z,27.88
2022-12-09T23:29:09.612Z,32.75
2022-12-09T23:31:38.731Z,27.15
2022-12-09T23:34:08.544Z,27.17
2022-12-09T23:36:39.564Z,27.25
2022-12-09T23:39:11.193Z,23.80
2022-12-09T23:41:40.291Z,22.95
2022-12-09T23:44:10.657Z,25.52
2022-12-09T23:46:40.230Z,22.85
2022-12-09T23:49:09.981Z,23.77
2022-12-09T23:51:41.213Z,24.20
2022-12-09T23:54:11.957Z,21.77
2022-12-09T23:56:44.279Z,23.08
2022-12-09T23:59:14.149Z,20.48
